Time;durP1;ratioP1;P1;durP2;ratioP2;P2;SDS_P1;SDS_P2;PMS_P1;PMS_P2;Temp;Humidity;BMP_temperature;BMP_pressure;BME280_temperature;BME280_humidity;BME280_pressure;Samples;Min_cycle;Max_cycle;Signal;HPM_P1;HPM_P2
2020/12/16 00:01:58;;;;;;;33.67;20.30;;;3.30;99.90;;;;;;5080976;28;20320;-69
2020/12/16 00:04:25;;;;;;;34.83;19.30;;;3.30;99.90;;;;;;5089002;28;20288;-70
2020/12/16 00:06:51;;;;;;;33.40;18.77;;;3.30;99.90;;;;;;5085025;28;20220;-69
2020/12/16 00:09:18;;;;;;;34.27;19.07;;;3.30;99.90;;;;;;5084703;28;20286;-70
2020/12/16 00:11:44;;;;;;;32.70;18.97;;;3.30;99.90;;;;;;5080835;28;20307;-69
2020/12/16 00:14:11;;;;;;;32.97;18.73;;;3.30;99.90;;;;;;5085390;28;20662;-70
2020/12/16 00:16:37;;;;;;;34.20;19.00;;;3.30;99.90;;;;;;5082132;28;20205;-70
2020/12/16 00:19:03;;;;;;;33.27;18.80;;;3.30;99.90;;;;;;5077270;28;20550;-70
2020/12/16 00:21:31;;;;;;;32.93;19.30;;;3.30;99.90;;;;;;5076551;28;20553;-70
2020/12/16 00:23:57;;;;;;;31.67;18.37;;;3.30;99.90;;;;;;5087614;28;20610;-70
2020/12/16 00:26:23;;;;;;;35.73;19.17;;;3.30;99.90;;;;;;5081021;28;20211;-69
2020/12/16 00:28:50;;;;;;;42.87;18.23;;;3.30;99.90;;;;;;5081960;28;20642;-70
2020/12/16 00:31:16;;;;;;;35.53;19.53;;;3.30;99.90;;;;;;5077835;28;20239;-70
2020/12/16 00:33:43;;;;;;;33.60;19.23;;;3.30;99.90;;;;;;5079059;28;20292;-70
2020/12/16 00:36:09;;;;;;;34.87;19.10;;;3.30;99.90;;;;;;5079472;28;20586;-69
2020/12/16 00:38:36;;;;;;;34.37;19.37;;;3.30;99.90;;;;;;5081494;28;20653;-70
2020/12/16 00:41:03;;;;;;;33.10;19.10;;;3.40;99.90;;;;;;5081319;28;20562;-69
2020/12/16 00:43:29;;;;;;;33.43;19.37;;;3.40;99.90;;;;;;5078349;28;20209;-70
2020/12/16 00:45:56;;;;;;;30.60;17.77;;;3.40;99.90;;;;;;5078572;28;20224;-68
2020/12/16 00:48:25;;;;;;;31.53;18.23;;;3.40;99.90;;;;;;5081115;28;20312;-69
2020/12/16 00:50:51;;;;;;;33.47;19.83;;;3.40;99.90;;;;;;5081066;28;20190;-69
2020/12/16 00:53:17;;;;;;;34.03;19.10;;;3.50;99.90;;;;;;5079629;28;20301;-69
2020/12/16 00:55:45;;;;;;;32.27;18.93;;;3.50;99.90;;;;;;5086496;28;20692;-69
2020/12/16 00:58:11;;;;;;;35.77;19.63;;;3.50;99.90;;;;;;5078199;28;20626;-69
2020/12/16 01:00:38;;;;;;;36.33;18.23;;;3.60;99.90;;;;;;5076386;28;20562;-69
2020/12/16 01:03:05;;;;;;;33.53;18.73;;;3.60;99.90;;;;;;5079935;28;20660;-68
2020/12/16 01:05:31;;;;;;;32.03;18.73;;;3.60;99.90;;;;;;5079272;28;20240;-69
2020/12/16 01:07:57;;;;;;;33.93;18.77;;;3.50;99.90;;;;;;5078522;28;20331;-69
2020/12/16 01:10:24;;;;;;;33.23;19.13;;;3.60;99.90;;;;;;5078019;28;20579;-70
2020/12/16 01:12:52;;;;;;;32.47;18.70;;;3.60;99.90;;;;;;5077057;28;20561;-69
2020/12/16 01:15:19;;;;;;;32.10;18.30;;;3.60;99.90;;;;;;5077762;28;20282;-70
2020/12/16 01:17:47;;;;;;;32.57;18.00;;;3.60;99.90;;;;;;5077556;28;20217;-70
2020/12/16 01:20:14;;;;;;;31.37;16.83;;;3.60;99.90;;;;;;5077829;28;20209;-70
2020/12/16 01:22:41;;;;;;;33.03;18.40;;;3.70;99.90;;;;;;5078582;28;20213;-68
2020/12/16 01:25:08;;;;;;;32.90;18.17;;;3.60;99.90;;;;;;5085483;28;20232;-69
2020/12/16 01:27:35;;;;;;;31.90;18.40;;;3.60;99.90;;;;;;5077784;28;20237;-69
2020/12/16 01:30:04;;;;;;;32.50;17.93;;;3.60;99.90;;;;;;5076776;28;20264;-70
2020/12/16 01:32:32;;;;;;;30.73;18.83;;;3.60;99.90;;;;;;5081248;28;20237;-69
2020/12/16 01:34:59;;;;;;;28.47;16.70;;;3.60;99.90;;;;;;5080314;28;20205;-69
2020/12/16 01:37:25;;;;;;;34.20;19.63;;;3.60;99.90;;;;;;5079833;28;20557;-69
2020/12/16 01:39:52;;;;;;;30.33;19.27;;;3.60;99.90;;;;;;5080109;28;20215;-71
2020/12/16 01:42:18;;;;;;;33.47;19.13;;;3.60;99.90;;;;;;5081685;28;20201;-70
2020/12/16 01:44:44;;;;;;;33.80;19.50;;;3.60;99.90;;;;;;5083195;28;20659;-70
2020/12/16 01:47:12;;;;;;;32.80;19.80;;;3.60;99.90;;;;;;5078201;28;20231;-70
2020/12/16 01:49:39;;;;;;;35.63;19.23;;;3.60;99.90;;;;;;5083206;28;20714;-70
2020/12/16 01:52:07;;;;;;;34.50;19.37;;;3.60;99.90;;;;;;5078387;28;20268;-70
2020/12/16 01:54:35;;;;;;;34.97;19.07;;;3.50;99.90;;;;;;5084961;28;20209;-69
2020/12/16 01:57:03;;;;;;;33.67;18.07;;;3.50;99.90;;;;;;5078072;28;20618;-69
2020/12/16 01:59:35;;;;;;;34.50;19.93;;;3.50;99.90;;;;;;5080844;28;20212;-69
2020/12/16 02:02:03;;;;;;;34.90;18.97;;;3.50;99.90;;;;;;5075660;28;20268;-69
2020/12/16 02:04:35;;;;;;;35.90;18.57;;;3.50;99.90;;;;;;5078286;28;20197;-69
2020/12/16 02:07:07;;;;;;;35.53;19.80;;;3.50;99.90;;;;;;5075107;28;20239;-70
2020/12/16 02:09:39;;;;;;;31.13;17.73;;;3.50;99.90;;;;;;5084212;28;21208;-70
2020/12/16 02:12:14;;;;;;;32.23;18.47;;;3.50;99.90;;;;;;5073585;28;20239;-70
2020/12/16 02:14:41;;;;;;;39.93;20.50;;;3.50;99.90;;;;;;5080537;28;20208;-68
2020/12/16 02:17:09;;;;;;;34.47;19.37;;;3.50;99.90;;;;;;5076877;28;20213;-69
2020/12/16 02:19:41;;;;;;;32.37;17.87;;;3.50;99.90;;;;;;5075959;28;20205;-70
2020/12/16 02:22:08;;;;;;;30.97;18.37;;;3.50;99.90;;;;;;5074563;28;20565;-68
2020/12/16 02:24:39;;;;;;;33.10;18.90;;;3.50;99.90;;;;;;5081439;28;20265;-69
2020/12/16 02:27:07;;;;;;;32.93;18.03;;;3.50;99.90;;;;;;5079064;28;20249;-70
2020/12/16 02:29:34;;;;;;;36.80;19.37;;;3.50;99.90;;;;;;5074072;28;20657;-69
2020/12/16 02:32:02;;;;;;;35.17;18.73;;;3.40;99.90;;;;;;5089380;28;20644;-69
2020/12/16 02:34:29;;;;;;;33.57;18.00;;;3.40;99.90;;;;;;5080134;28;20205;-69
2020/12/16 02:36:55;;;;;;;33.20;18.77;;;3.40;99.90;;;;;;5085447;28;20595;-69
2020/12/16 02:39:21;;;;;;;29.50;17.87;;;3.40;99.90;;;;;;5078865;28;20376;-70
2020/12/16 02:41:48;;;;;;;33.33;18.40;;;3.40;99.90;;;;;;5078463;28;20287;-70
2020/12/16 02:44:15;;;;;;;32.33;18.40;;;3.40;99.90;;;;;;5087668;28;20331;-69
2020/12/16 02:46:42;;;;;;;32.23;18.27;;;3.40;99.90;;;;;;5077428;28;20201;-69
2020/12/16 02:49:08;;;;;;;33.90;19.27;;;3.40;99.90;;;;;;5080509;28;20233;-70
2020/12/16 02:51:34;;;;;;;36.13;19.13;;;3.40;99.90;;;;;;5082788;28;20307;-70
2020/12/16 02:54:01;;;;;;;33.57;19.50;;;3.30;99.90;;;;;;5085070;28;20296;-70
2020/12/16 02:56:27;;;;;;;33.07;19.83;;;3.30;99.90;;;;;;5092238;28;20574;-70
2020/12/16 02:58:54;;;;;;;34.20;18.77;;;3.30;99.90;;;;;;5082305;28;20278;-70
2020/12/16 03:01:21;;;;;;;35.83;19.30;;;3.30;99.90;;;;;;5083046;28;20237;-70
2020/12/16 03:03:47;;;;;;;32.87;18.20;;;3.30;99.90;;;;;;5080540;28;20289;-71
2020/12/16 03:06:15;;;;;;;28.20;16.70;;;3.30;99.90;;;;;;5082183;28;20245;-70
2020/12/16 03:08:41;;;;;;;29.27;18.33;;;3.20;99.90;;;;;;5076696;28;20221;-71
2020/12/16 03:11:08;;;;;;;35.33;19.70;;;3.20;99.90;;;;;;5079875;28;20240;-70
2020/12/16 03:13:34;;;;;;;32.40;18.63;;;3.20;99.90;;;;;;5081659;28;20205;-70
2020/12/16 03:16:01;;;;;;;35.53;19.20;;;3.20;99.90;;;;;;5082157;28;20291;-68
2020/12/16 03:18:29;;;;;;;34.73;20.07;;;3.20;99.90;;;;;;5081011;28;20630;-71
2020/12/16 03:20:56;;;;;;;38.77;20.43;;;3.20;99.90;;;;;;5077570;28;20254;-70
2020/12/16 03:23:22;;;;;;;32.57;19.43;;;3.20;99.90;;;;;;5078280;28;20212;-69
2020/12/16 03:25:48;;;;;;;36.23;19.73;;;3.20;99.90;;;;;;5078554;28;20216;-70
2020/12/16 03:28:15;;;;;;;33.10;18.60;;;3.20;99.90;;;;;;5079245;28;20225;-69
2020/12/16 03:30:41;;;;;;;33.00;19.17;;;3.10;99.90;;;;;;5081994;28;20208;-70
2020/12/16 03:33:07;;;;;;;34.97;19.27;;;3.10;99.90;;;;;;5079636;28;20565;-70
2020/12/16 03:35:35;;;;;;;31.27;18.00;;;3.00;99.90;;;;;;5083699;28;20239;-70
2020/12/16 03:38:01;;;;;;;36.07;19.87;;;3.00;99.90;;;;;;5080168;28;20559;-69
2020/12/16 03:40:27;;;;;;;38.23;19.33;;;3.00;99.90;;;;;;5080960;28;20254;-70
2020/12/16 03:42:55;;;;;;;38.67;20.53;;;3.00;99.90;;;;;;5078293;28;20576;-70
2020/12/16 03:45:21;;;;;;;33.07;19.37;;;3.00;99.90;;;;;;5081011;28;20624;-70
2020/12/16 03:47:48;;;;;;;36.50;19.83;;;3.00;99.90;;;;;;5092751;28;20264;-71
2020/12/16 03:50:14;;;;;;;32.40;18.53;;;3.00;99.90;;;;;;5086703;28;20224;-70
2020/12/16 03:52:41;;;;;;;37.60;20.13;;;3.10;99.90;;;;;;5079941;28;20247;-70
2020/12/16 03:55:08;;;;;;;40.20;20.50;;;3.00;99.90;;;;;;5085352;28;20213;-69
2020/12/16 03:57:34;;;;;;;34.10;18.93;;;3.00;99.90;;;;;;5081058;28;20216;-69
2020/12/16 04:00:01;;;;;;;34.70;18.23;;;3.00;99.90;;;;;;5077787;28;20322;-69
2020/12/16 04:02:27;;;;;;;33.00;18.77;;;3.00;99.90;;;;;;5078316;28;20334;-69
2020/12/16 04:04:53;;;;;;;33.50;18.90;;;3.00;99.90;;;;;;5079750;28;20236;-70
2020/12/16 04:07:20;;;;;;;33.63;19.57;;;2.90;99.90;;;;;;5078569;28;20250;-70
2020/12/16 04:09:47;;;;;;;36.40;20.23;;;2.90;99.90;;;;;;5077358;28;20205;-69
2020/12/16 04:12:13;;;;;;;37.93;20.43;;;2.90;99.90;;;;;;5078893;28;20264;-69
2020/12/16 04:14:40;;;;;;;36.77;20.27;;;2.90;99.90;;;;;;5080812;28;20549;-70
2020/12/16 04:17:06;;;;;;;35.33;20.63;;;2.90;99.90;;;;;;5078771;28;20676;-69
2020/12/16 04:19:32;;;;;;;36.17;20.17;;;2.90;99.90;;;;;;5079486;28;20711;-69
2020/12/16 04:21:59;;;;;;;33.43;18.97;;;2.90;99.90;;;;;;5076560;28;20681;-68
2020/12/16 04:24:25;;;;;;;33.93;19.03;;;2.90;99.90;;;;;;5083277;28;20614;-70
2020/12/16 04:26:53;;;;;;;33.47;18.50;;;3.00;99.90;;;;;;5081025;28;20555;-70
2020/12/16 04:29:19;;;;;;;39.57;21.50;;;2.90;99.90;;;;;;5077964;28;20256;-70
2020/12/16 04:31:49;;;;;;;34.77;20.33;;;2.90;99.90;;;;;;5078063;28;20583;-69
2020/12/16 04:34:16;;;;;;;36.37;20.00;;;2.90;99.90;;;;;;5081707;28;20201;-69
2020/12/16 04:36:46;;;;;;;38.67;21.20;;;2.90;99.90;;;;;;5077138;28;20197;-69
2020/12/16 04:39:12;;;;;;;36.50;19.20;;;2.90;99.90;;;;;;5078548;28;20312;-71
2020/12/16 04:41:39;;;;;;;40.20;21.17;;;2.80;99.90;;;;;;5082088;28;20702;-70
2020/12/16 04:44:09;;;;;;;38.33;20.13;;;2.80;99.90;;;;;;5080791;28;20205;-69
2020/12/16 04:46:39;;;;;;;34.20;19.33;;;2.80;99.90;;;;;;5077700;28;20212;-69
2020/12/16 04:49:05;;;;;;;37.83;19.93;;;2.80;99.90;;;;;;5077152;28;20221;-69
2020/12/16 04:51:33;;;;;;;34.70;19.27;;;2.90;99.90;;;;;;5080402;28;20534;-69
2020/12/16 04:54:00;;;;;;;36.50;20.43;;;2.80;99.90;;;;;;5080489;28;20201;-69
2020/12/16 04:56:29;;;;;;;36.73;20.20;;;2.80;99.90;;;;;;5079603;28;20205;-70
2020/12/16 04:58:56;;;;;;;39.17;21.03;;;2.80;99.90;;;;;;5082291;28;20208;-70
2020/12/16 05:01:23;;;;;;;38.63;19.97;;;2.80;99.90;;;;;;5078412;28;20205;-70
2020/12/16 05:03:50;;;;;;;39.00;21.07;;;2.80;99.90;;;;;;5079200;28;20262;-70
2020/12/16 05:06:37;;;;;;;36.37;19.67;;;2.80;99.90;;;;;;5079831;28;20201;-69
2020/12/16 05:09:07;;;;;;;41.40;20.90;;;2.80;99.90;;;;;;5074530;28;20696;-69
2020/12/16 05:11:35;;;;;;;37.97;19.90;;;2.80;99.90;;;;;;5075204;28;20231;-69
2020/12/16 05:14:13;;;;;;;36.93;19.87;;;2.70;99.90;;;;;;5084040;28;20622;-70
2020/12/16 05:16:55;;;;;;;37.77;19.60;;;2.80;99.90;;;;;;5079587;28;20201;-70
2020/12/16 05:19:36;;;;;;;37.13;19.97;;;2.80;99.90;;;;;;5081564;28;20217;-70
2020/12/16 05:22:13;;;;;;;33.50;19.10;;;2.80;99.90;;;;;;5078791;28;20212;-70
2020/12/16 05:24:40;;;;;;;37.30;19.50;;;2.80;99.90;;;;;;5081730;28;20208;-70
2020/12/16 05:27:09;;;;;;;37.40;20.10;;;2.80;99.90;;;;;;5083608;28;20201;-70
2020/12/16 05:29:36;;;;;;;35.87;19.23;;;2.90;99.90;;;;;;5077586;28;20678;-69
2020/12/16 05:32:22;;;;;;;32.67;18.27;;;2.90;99.90;;;;;;5074871;28;20197;-70
2020/12/16 05:34:50;;;;;;;35.70;19.67;;;2.90;99.90;;;;;;5074750;28;20221;-69
2020/12/16 05:37:37;;;;;;;36.33;18.43;;;2.90;99.90;;;;;;5083272;28;20202;-69
2020/12/16 05:40:08;;;;;;;36.07;19.63;;;2.90;99.90;;;;;;5071313;28;20259;-70
2020/12/16 05:42:34;;;;;;;31.77;19.10;;;2.90;99.90;;;;;;5080479;28;20231;-69
2020/12/16 05:45:12;;;;;;;39.80;20.30;;;2.90;99.90;;;;;;5077926;28;20324;-69
2020/12/16 05:47:41;;;;;;;34.17;20.07;;;2.90;99.90;;;;;;5076714;28;20209;-69
2020/12/16 05:50:18;;;;;;;31.23;19.13;;;2.90;99.90;;;;;;5080761;28;20217;-69
2020/12/16 05:52:46;;;;;;;31.53;18.60;;;2.90;99.90;;;;;;5076464;28;20205;-70
2020/12/16 05:55:25;;;;;;;37.27;19.40;;;2.90;99.90;;;;;;5077195;28;20649;-69
2020/12/16 05:58:09;;;;;;;32.97;19.07;;;2.90;99.90;;;;;;5081599;28;20221;-71
2020/12/16 06:00:59;;;;;;;34.40;19.13;;;2.90;99.90;;;;;;5077120;28;20580;-70
2020/12/16 06:03:29;;;;;;;37.20;18.97;;;2.90;99.90;;;;;;5061821;28;20229;-70
2020/12/16 06:05:57;;;;;;;32.77;19.37;;;2.90;99.90;;;;;;5078298;28;20209;-70
2020/12/16 06:08:28;;;;;;;33.93;19.07;;;2.90;99.90;;;;;;5076364;28;20221;-69
2020/12/16 06:10:55;;;;;;;32.80;18.53;;;3.00;99.90;;;;;;5076622;28;20300;-69
2020/12/16 06:13:22;;;;;;;33.70;18.50;;;3.00;99.90;;;;;;5075281;28;20205;-69
2020/12/16 06:15:54;;;;;;;34.87;18.67;;;3.00;99.90;;;;;;5076645;28;20247;-69
2020/12/16 06:18:22;;;;;;;32.13;19.03;;;3.00;99.90;;;;;;5080489;28;20198;-70
2020/12/16 06:20:50;;;;;;;37.80;19.33;;;3.00;99.90;;;;;;5079753;28;20288;-68
2020/12/16 06:23:29;;;;;;;36.30;18.80;;;3.00;99.90;;;;;;5091530;28;20204;-69
2020/12/16 06:25:57;;;;;;;34.57;19.37;;;3.00;99.90;;;;;;5089127;28;20204;-69
2020/12/16 06:28:24;;;;;;;33.10;19.00;;;3.10;99.90;;;;;;5094742;28;20232;-68
2020/12/16 06:30:55;;;;;;;33.67;17.73;;;3.10;99.90;;;;;;5093139;28;20292;-70
2020/12/16 06:33:40;;;;;;;35.30;18.60;;;3.10;99.90;;;;;;5090829;28;20292;-69
2020/12/16 06:36:09;;;;;;;33.63;18.00;;;3.20;99.90;;;;;;5090773;28;20330;-69
2020/12/16 06:38:45;;;;;;;31.93;17.27;;;3.20;99.90;;;;;;5092754;28;20243;-69
2020/12/16 06:41:20;;;;;;;33.17;18.50;;;3.20;99.90;;;;;;5088312;28;20208;-70
2020/12/16 06:43:47;;;;;;;30.73;17.40;;;3.20;99.90;;;;;;5093349;28;20296;-70
2020/12/16 06:46:48;;;;;;;32.27;17.80;;;3.30;99.90;;;;;;5091731;28;20209;-70
2020/12/16 06:49:41;;;;;;;31.97;17.10;;;3.30;99.90;;;;;;5082441;28;20387;-69
2020/12/16 06:52:13;;;;;;;31.37;17.60;;;3.30;99.90;;;;;;5084110;28;20200;-71
2020/12/16 06:54:53;;;;;;;30.50;18.37;;;3.30;99.90;;;;;;5093654;28;20298;-70
2020/12/16 06:57:22;;;;;;;31.27;16.93;;;3.30;99.90;;;;;;5081404;28;20201;-70
2020/12/16 06:59:59;;;;;;;30.07;16.73;;;3.30;99.90;;;;;;5075702;28;20209;-70
2020/12/16 07:02:30;;;;;;;32.07;18.07;;;3.40;99.90;;;;;;5088591;28;20732;-70
2020/12/16 07:04:58;;;;;;;30.40;18.63;;;3.40;99.90;;;;;;5087934;28;20273;-70
2020/12/16 07:07:48;;;;;;;32.07;17.10;;;3.50;99.90;;;;;;5093353;28;20215;-79
2020/12/16 07:10:48;;;;;;;32.20;18.33;;;3.50;99.90;;;;;;5090700;28;20213;-80
2020/12/16 07:13:27;;;;;;;30.97;17.60;;;3.50;99.90;;;;;;5097447;28;20232;-80
2020/12/16 07:15:59;;;;;;;32.57;17.70;;;3.60;99.90;;;;;;5092132;28;20210;-79
2020/12/16 07:18:43;;;;;;;33.10;16.30;;;3.60;99.90;;;;;;5093230;28;20201;-75
2020/12/16 07:21:35;;;;;;;31.07;17.53;;;3.70;99.90;;;;;;5087974;28;20653;-76
2020/12/16 07:24:11;;;;;;;30.57;16.90;;;3.70;99.90;;;;;;5093641;28;20564;-70
2020/12/16 07:26:43;;;;;;;32.23;17.17;;;3.70;99.90;;;;;;5089174;28;20382;-71
2020/12/16 07:29:28;;;;;;;27.50;15.90;;;3.70;99.90;;;;;;5093496;28;20610;-71
2020/12/16 07:32:00;;;;;;;31.03;17.00;;;3.70;99.90;;;;;;5083813;28;20196;-71
2020/12/16 07:34:27;;;;;;;30.63;17.43;;;3.70;99.90;;;;;;5094689;28;20287;-71
2020/12/16 07:36:59;;;;;;;33.70;18.77;;;3.70;99.90;;;;;;5086529;28;20638;-71
2020/12/16 07:39:27;;;;;;;29.77;17.00;;;3.70;99.90;;;;;;5080837;28;20228;-72
2020/12/16 07:41:55;;;;;;;32.17;16.87;;;3.70;99.90;;;;;;5086440;27;20265;-71
2020/12/16 07:44:22;;;;;;;28.93;17.63;;;3.70;99.90;;;;;;5089139;28;20246;-70
2020/12/16 07:47:06;;;;;;;31.90;16.50;;;3.70;99.90;;;;;;5095243;28;20196;-80
2020/12/16 07:49:33;;;;;;;33.80;17.63;;;3.80;99.90;;;;;;5094010;28;20217;-79
2020/12/16 07:52:01;;;;;;;26.33;15.63;;;3.80;99.90;;;;;;5095381;28;20212;-77
2020/12/16 07:54:30;;;;;;;31.00;16.80;;;3.80;99.90;;;;;;5102776;28;20208;-80
2020/12/16 07:57:06;;;;;;;27.37;16.40;;;3.90;99.90;;;;;;5102608;28;20208;-78
2020/12/16 07:59:36;;;;;;;31.40;16.00;;;3.90;99.90;;;;;;5099241;28;20660;-79
2020/12/16 08:02:10;;;;;;;31.27;17.37;;;4.00;99.90;;;;;;5099735;28;20237;-77
2020/12/16 08:04:38;;;;;;;28.90;16.17;;;4.00;99.90;;;;;;5097189;28;20221;-78
2020/12/16 08:07:12;;;;;;;32.50;16.90;;;4.10;99.90;;;;;;5084410;28;20266;-79
2020/12/16 08:09:51;;;;;;;27.80;16.80;;;4.10;99.90;;;;;;5085059;28;20228;-79
2020/12/16 08:12:18;;;;;;;28.00;15.60;;;4.10;99.90;;;;;;5087099;28;20311;-79
2020/12/16 08:14:44;;;;;;;23.30;14.97;;;4.10;99.90;;;;;;5092650;28;20204;-72
2020/12/16 08:17:11;;;;;;;26.97;16.00;;;4.10;99.90;;;;;;5087420;28;20287;-74
2020/12/16 08:19:38;;;;;;;27.17;15.23;;;4.10;99.90;;;;;;5094539;28;20285;-72
2020/12/16 08:22:12;;;;;;;25.07;14.40;;;4.10;99.90;;;;;;5094080;28;20631;-69
2020/12/16 08:24:39;;;;;;;27.50;14.77;;;4.20;99.90;;;;;;5080729;28;20216;-72
2020/12/16 08:27:06;;;;;;;26.10;14.50;;;4.30;99.90;;;;;;5097604;28;20196;-73
2020/12/16 08:29:33;;;;;;;22.70;12.90;;;4.30;99.90;;;;;;5083073;28;20619;-72
2020/12/16 08:32:01;;;;;;;24.70;14.77;;;4.40;99.90;;;;;;5085179;28;20197;-71
2020/12/16 08:34:28;;;;;;;29.17;13.50;;;4.40;99.90;;;;;;5077658;28;20643;-72
2020/12/16 08:36:58;;;;;;;26.17;13.77;;;4.40;99.90;;;;;;5096489;28;20236;-74
2020/12/16 08:39:26;;;;;;;24.13;13.43;;;4.60;99.90;;;;;;5088728;28;20251;-73
2020/12/16 08:41:55;;;;;;;26.07;13.90;;;4.60;99.90;;;;;;5093371;28;20276;-73
2020/12/16 08:44:23;;;;;;;25.83;13.17;;;4.70;99.90;;;;;;5082165;28;20284;-73
2020/12/16 08:46:50;;;;;;;24.73;14.23;;;4.70;99.90;;;;;;5081032;28;20198;-73
2020/12/16 08:49:21;;;;;;;21.03;12.83;;;4.70;99.90;;;;;;5076551;28;20697;-72
2020/12/16 08:51:48;;;;;;;24.43;14.10;;;4.70;99.90;;;;;;5085360;28;20197;-71
2020/12/16 08:54:23;;;;;;;21.57;12.80;;;4.80;99.90;;;;;;5081094;28;20304;-71
2020/12/16 08:56:52;;;;;;;24.03;13.53;;;4.80;99.90;;;;;;5082509;28;20196;-70
2020/12/16 08:59:24;;;;;;;22.23;13.47;;;4.80;99.90;;;;;;5082110;28;20232;-71
2020/12/16 09:01:52;;;;;;;22.53;12.83;;;4.90;99.90;;;;;;5084826;28;20713;-69
2020/12/16 09:04:24;;;;;;;22.83;13.70;;;4.90;99.90;;;;;;5087530;28;20201;-70
2020/12/16 09:07:01;;;;;;;22.53;13.20;;;4.90;99.90;;;;;;5096283;28;20287;-69
2020/12/16 09:09:27;;;;;;;24.87;13.33;;;5.00;99.90;;;;;;5081173;28;20602;-68
2020/12/16 09:11:54;;;;;;;26.47;13.53;;;5.00;99.90;;;;;;5083980;28;20292;-69
2020/12/16 09:14:22;;;;;;;24.67;14.30;;;5.00;99.90;;;;;;5088816;28;21032;-69
2020/12/16 09:16:48;;;;;;;25.93;13.23;;;5.10;99.90;;;;;;5090129;28;20207;-69
2020/12/16 09:19:19;;;;;;;25.77;14.90;;;5.10;99.90;;;;;;5089095;28;20291;-69
2020/12/16 09:21:47;;;;;;;27.57;13.70;;;5.10;99.90;;;;;;5090900;28;20615;-69
2020/12/16 09:24:18;;;;;;;25.90;14.93;;;5.20;99.90;;;;;;5084468;28;20562;-69
2020/12/16 09:26:46;;;;;;;23.93;13.77;;;5.20;99.90;;;;;;5088631;28;20607;-69
2020/12/16 09:29:22;;;;;;;26.70;14.57;;;5.20;99.90;;;;;;5096258;28;20248;-71
2020/12/16 09:31:50;;;;;;;26.87;14.63;;;5.30;99.90;;;;;;5093229;28;20200;-68
2020/12/16 09:34:17;;;;;;;25.27;14.57;;;5.30;99.90;;;;;;5096113;28;20216;-70
2020/12/16 09:36:44;;;;;;;22.23;14.10;;;5.30;99.90;;;;;;5095087;28;20270;-70
2020/12/16 09:39:11;;;;;;;25.20;12.93;;;5.40;99.90;;;;;;5084639;28;20283;-69
2020/12/16 09:41:49;;;;;;;28.50;14.97;;;5.40;99.90;;;;;;5087432;28;20240;-69
2020/12/16 09:44:27;;;;;;;28.60;15.13;;;5.40;99.90;;;;;;5086028;28;20335;-69
2020/12/16 09:46:54;;;;;;;22.17;13.73;;;5.40;99.90;;;;;;5092890;28;20643;-69
2020/12/16 09:49:21;;;;;;;21.50;14.13;;;5.40;99.90;;;;;;5078670;28;20221;-68
2020/12/16 09:51:48;;;;;;;25.20;14.63;;;5.40;99.90;;;;;;5075287;28;20213;-68
2020/12/16 09:54:31;;;;;;;25.60;14.47;;;5.40;99.90;;;;;;5079052;28;20303;-73
2020/12/16 09:57:08;;;;;;;21.73;14.00;;;5.50;99.90;;;;;;5088375;28;20712;-74
2020/12/16 09:59:36;;;;;;;28.83;14.27;;;5.40;99.90;;;;;;5085379;28;20196;-70
2020/12/16 10:02:02;;;;;;;31.23;15.33;;;5.40;99.90;;;;;;5078465;28;20272;-71
2020/12/16 10:04:29;;;;;;;28.17;14.10;;;5.40;99.90;;;;;;5082275;28;20209;-70
2020/12/16 10:06:55;;;;;;;25.07;14.30;;;5.40;99.90;;;;;;5078723;28;20285;-70
2020/12/16 10:09:22;;;;;;;25.70;13.63;;;5.50;99.90;;;;;;5082133;28;20313;-70
2020/12/16 10:11:49;;;;;;;23.23;14.37;;;5.40;99.90;;;;;;5077995;28;20671;-70
2020/12/16 10:14:17;;;;;;;23.47;13.60;;;5.50;99.90;;;;;;5086313;28;20209;-70
2020/12/16 10:16:46;;;;;;;30.10;14.63;;;5.40;99.90;;;;;;5081490;28;20709;-71
2020/12/16 10:19:13;;;;;;;22.93;14.70;;;5.40;99.90;;;;;;5078012;28;20236;-69
2020/12/16 10:21:40;;;;;;;25.27;15.80;;;5.40;99.90;;;;;;5080017;28;20274;-70
2020/12/16 10:24:07;;;;;;;22.10;14.90;;;5.40;99.90;;;;;;5079974;28;20206;-71
2020/12/16 10:26:33;;;;;;;29.47;15.77;;;5.40;99.90;;;;;;5087519;28;20203;-70
2020/12/16 10:29:00;;;;;;;25.53;14.63;;;5.50;99.90;;;;;;5073506;28;20260;-70
2020/12/16 10:31:26;;;;;;;25.57;15.60;;;5.40;99.90;;;;;;5074290;28;20258;-70
2020/12/16 10:33:53;;;;;;;27.40;15.07;;;5.50;99.90;;;;;;5076981;28;20296;-70
2020/12/16 10:36:20;;;;;;;26.23;14.60;;;5.50;99.90;;;;;;5079967;28;20220;-69
2020/12/16 10:38:46;;;;;;;28.57;15.67;;;5.60;99.90;;;;;;5076443;28;20224;-70
2020/12/16 10:41:13;;;;;;;28.10;14.03;;;5.50;99.90;;;;;;5079786;28;20240;-70
2020/12/16 10:43:40;;;;;;;25.93;14.93;;;5.60;99.90;;;;;;5077210;28;20208;-69
2020/12/16 10:46:08;;;;;;;29.30;15.70;;;5.60;99.90;;;;;;5082801;28;20200;-70
2020/12/16 10:48:34;;;;;;;25.97;14.80;;;5.60;99.90;;;;;;5078792;28;20221;-70
2020/12/16 10:51:02;;;;;;;27.27;15.23;;;5.60;99.90;;;;;;5081465;28;20209;-70
2020/12/16 10:53:28;;;;;;;29.20;16.57;;;5.60;99.90;;;;;;5080251;28;20248;-70
2020/12/16 10:55:56;;;;;;;29.63;16.20;;;5.60;99.90;;;;;;5094505;28;20243;-70
2020/12/16 10:58:23;;;;;;;28.17;15.33;;;5.60;99.90;;;;;;5080887;28;20228;-71
2020/12/16 11:00:50;;;;;;;26.43;14.83;;;5.70;99.90;;;;;;5084828;28;20257;-70
2020/12/16 11:03:17;;;;;;;33.27;17.50;;;5.70;99.90;;;;;;5080591;28;20327;-70
2020/12/16 11:05:43;;;;;;;33.77;16.83;;;5.60;99.90;;;;;;5078416;28;20668;-71
2020/12/16 11:08:09;;;;;;;34.23;17.47;;;5.60;99.90;;;;;;5083613;28;20267;-70
2020/12/16 11:10:36;;;;;;;30.47;17.77;;;5.60;99.90;;;;;;5086460;28;20213;-71
2020/12/16 11:13:04;;;;;;;33.87;17.53;;;5.70;99.90;;;;;;5083349;28;20275;-71
2020/12/16 11:15:31;;;;;;;30.37;16.30;;;5.60;99.90;;;;;;5083916;28;20668;-70
2020/12/16 11:17:58;;;;;;;28.83;16.23;;;5.70;99.90;;;;;;5082995;28;20292;-71
2020/12/16 11:20:24;;;;;;;32.73;16.77;;;5.70;99.90;;;;;;5086289;28;20217;-72
2020/12/16 11:22:51;;;;;;;30.13;16.30;;;5.70;99.90;;;;;;5097209;28;20311;-72
2020/12/16 11:25:17;;;;;;;28.73;15.50;;;5.70;99.90;;;;;;5090512;28;20236;-71
2020/12/16 11:27:43;;;;;;;35.97;16.73;;;5.70;99.90;;;;;;5081833;28;20205;-70
2020/12/16 11:30:10;;;;;;;31.87;16.87;;;5.70;99.90;;;;;;5081064;28;20257;-73
2020/12/16 11:32:37;;;;;;;31.50;17.77;;;5.80;99.90;;;;;;5088704;28;20232;-71
2020/12/16 11:35:03;;;;;;;32.43;16.77;;;5.70;99.90;;;;;;5090045;28;20236;-72
2020/12/16 11:37:30;;;;;;;31.13;17.23;;;5.80;99.90;;;;;;5089535;28;20205;-70
2020/12/16 11:39:58;;;;;;;35.57;17.03;;;5.80;99.90;;;;;;5093270;28;20205;-69
2020/12/16 11:42:25;;;;;;;32.27;17.57;;;5.80;99.90;;;;;;5086611;28;20626;-69
2020/12/16 11:44:52;;;;;;;36.03;18.03;;;5.80;99.90;;;;;;5089746;28;20229;-69
2020/12/16 11:47:18;;;;;;;33.90;17.13;;;5.80;99.90;;;;;;5087606;28;20216;-69
2020/12/16 11:49:46;;;;;;;32.37;17.67;;;5.80;99.90;;;;;;5090505;28;20312;-68
2020/12/16 11:52:12;;;;;;;33.10;18.07;;;5.80;99.90;;;;;;5084313;28;20300;-68
2020/12/16 11:54:39;;;;;;;32.50;17.50;;;5.80;99.90;;;;;;5092811;28;20287;-68
2020/12/16 11:57:05;;;;;;;30.80;17.73;;;5.80;99.90;;;;;;5084006;28;20291;-68
2020/12/16 11:59:32;;;;;;;36.67;17.27;;;5.80;99.90;;;;;;5081986;28;20269;-69
2020/12/16 12:02:00;;;;;;;37.07;18.10;;;5.80;99.90;;;;;;5090118;28;20235;-70
2020/12/16 12:04:27;;;;;;;31.30;17.00;;;5.80;99.90;;;;;;5079007;28;20251;-67
2020/12/16 12:06:54;;;;;;;30.43;17.30;;;5.80;99.90;;;;;;5076762;28;20299;-69
2020/12/16 12:09:21;;;;;;;34.07;16.60;;;5.80;99.90;;;;;;5090349;28;20224;-69
2020/12/16 12:11:48;;;;;;;36.33;18.60;;;5.90;99.90;;;;;;5078532;28;20595;-68
2020/12/16 12:14:15;;;;;;;37.10;18.50;;;5.90;99.90;;;;;;5078872;28;20296;-68
2020/12/16 12:16:43;;;;;;;31.27;18.13;;;5.80;99.90;;;;;;5094071;28;20687;-68
2020/12/16 12:19:10;;;;;;;33.97;17.93;;;5.80;99.90;;;;;;5096639;28;20200;-68
2020/12/16 12:21:36;;;;;;;34.03;17.57;;;5.80;99.90;;;;;;5095975;28;20284;-69
2020/12/16 12:24:03;;;;;;;33.87;18.20;;;5.80;99.90;;;;;;5084091;28;20275;-71
2020/12/16 12:26:30;;;;;;;29.40;17.27;;;5.80;99.90;;;;;;5092623;28;20198;-71
2020/12/16 12:28:56;;;;;;;31.90;18.17;;;5.80;99.90;;;;;;5094431;28;20267;-70
2020/12/16 12:31:23;;;;;;;34.60;18.63;;;5.80;99.90;;;;;;5085575;28;20320;-71
2020/12/16 12:33:49;;;;;;;32.57;18.60;;;5.80;99.90;;;;;;5091973;28;20620;-70
2020/12/16 12:36:15;;;;;;;33.37;17.67;;;5.80;99.90;;;;;;5084436;28;20714;-71
2020/12/16 12:38:42;;;;;;;34.33;18.03;;;5.80;99.90;;;;;;5092432;28;20224;-70
2020/12/16 12:41:09;;;;;;;34.83;19.53;;;5.80;99.90;;;;;;5089819;28;20251;-71
2020/12/16 12:43:36;;;;;;;34.23;18.80;;;5.80;99.90;;;;;;5093645;28;20204;-72
2020/12/16 12:46:02;;;;;;;35.43;18.97;;;5.80;99.90;;;;;;5095927;28;20230;-71